createdAt,value
2018-01-05T00:01:39.331Z,10.70
2018-01-05T00:04:07.851Z,10.70
2018-01-05T00:06:35.448Z,10.70
2018-01-05T00:09:04.575Z,10.70
2018-01-05T00:11:33.077Z,10.80
2018-01-05T00:14:01.080Z,10.70
2018-01-05T00:16:28.672Z,10.80
2018-01-05T00:18:56.267Z,10.80
2018-01-05T00:21:24.639Z,10.80
2018-01-05T00:23:52.238Z,10.80
2018-01-05T00:26:19.868Z,10.80
2018-01-05T00:28:47.476Z,10.70
2018-01-05T00:31:15.103Z,10.80
2018-01-05T00:33:43.666Z,10.80
2018-01-05T00:36:11.262Z,10.70
2018-01-05T00:38:39.670Z,10.80
2018-01-05T00:41:07.266Z,10.80
2018-01-05T00:43:34.889Z,10.80
2018-01-05T00:46:03.315Z,10.50
2018-01-05T00:48:30.911Z,10.50
2018-01-05T00:50:58.643Z,10.30
2018-01-05T00:53:26.239Z,10.10
2018-01-05T00:55:53.833Z,9.90
2018-01-05T00:58:22.323Z,9.60
2018-01-05T01:00:50.716Z,9.60
2018-01-05T01:03:18.319Z,9.50
2018-01-05T01:05:45.911Z,9.50
2018-01-05T01:08:13.539Z,9.30
2018-01-05T01:10:41.156Z,9.30
2018-01-05T01:13:09.543Z,9.10
2018-01-05T01:15:37.891Z,9.00
2018-01-05T01:18:05.518Z,9.00
2018-01-05T01:20:33.124Z,8.90
2018-01-05T01:23:00.710Z,8.90
2018-01-05T01:25:28.316Z,8.80
2018-01-05T01:27:55.898Z,8.80
2018-01-05T01:30:23.536Z,8.70
2018-01-05T01:32:51.122Z,8.70
2018-01-05T01:35:18.835Z,8.70
2018-01-05T01:37:46.446Z,8.70
2018-01-05T01:40:14.040Z,8.60
2018-01-05T01:42:41.655Z,8.60
2018-01-05T01:45:10.029Z,8.60
2018-01-05T01:47:38.418Z,8.60
2018-01-05T01:50:06.798Z,8.60
2018-01-05T01:52:35.224Z,8.60
2018-01-05T01:55:02.858Z,8.60
2018-01-05T01:57:31.230Z,8.60
2018-01-05T01:59:59.624Z,8.60
2018-01-05T02:02:27.215Z,8.60
2018-01-05T02:04:54.819Z,8.60
2018-01-05T02:07:23.178Z,8.60
2018-01-05T02:09:50.789Z,8.60
2018-01-05T02:12:19.161Z,8.70
2018-01-05T02:14:46.751Z,8.70
2018-01-05T02:17:15.135Z,8.70
2018-01-05T02:19:43.531Z,8.70
2018-01-05T02:22:11.125Z,8.70
2018-01-05T02:24:38.729Z,8.70
2018-01-05T02:27:06.328Z,8.70
2018-01-05T02:29:33.927Z,8.70
2018-01-05T02:32:01.651Z,8.80
2018-01-05T02:34:29.450Z,8.80
2018-01-05T02:36:57.057Z,8.80
2018-01-05T02:39:24.650Z,8.80
2018-01-05T02:41:52.279Z,8.80
2018-01-05T02:46:43.629Z,8.70
2018-01-05T02:49:11.226Z,8.60
2018-01-05T02:51:38.835Z,8.70
2018-01-05T02:54:06.423Z,8.60
2018-01-05T02:56:34.005Z,8.60
2018-01-05T02:59:02.401Z,8.50
2018-01-05T03:01:30.756Z,8.50
2018-01-05T03:03:58.371Z,8.50
2018-01-05T03:06:25.986Z,8.50
2018-01-05T03:08:53.597Z,8.40
2018-01-05T03:11:21.222Z,8.40
2018-01-05T03:13:48.862Z,8.30
2018-01-05T03:16:16.450Z,8.30
2018-01-05T03:18:44.066Z,8.20
2018-01-05T03:21:11.650Z,8.20
2018-01-05T03:23:39.276Z,8.20
2018-01-05T03:26:07.676Z,8.20
2018-01-05T03:28:35.304Z,8.20
2018-01-05T03:31:03.688Z,8.10
2018-01-05T03:33:32.061Z,8.20
2018-01-05T03:35:59.940Z,8.10
2018-01-05T03:38:27.564Z,8.20
2018-01-05T03:40:55.170Z,8.20
2018-01-05T03:43:23.633Z,8.20
2018-01-05T03:45:51.224Z,8.10
2018-01-05T03:48:18.836Z,8.10
2018-01-05T03:50:46.522Z,8.10
2018-01-05T03:53:14.140Z,8.10
2018-01-05T03:55:42.525Z,8.20
2018-01-05T03:58:10.876Z,8.20
2018-01-05T04:00:38.810Z,8.20
2018-01-05T04:03:06.392Z,8.20
2018-01-05T04:05:33.978Z,8.20
2018-01-05T04:08:01.590Z,8.20
2018-01-05T04:10:29.193Z,8.20
2018-01-05T04:12:56.807Z,8.20
2018-01-05T04:15:25.163Z,8.20
2018-01-05T04:17:54.275Z,8.20
2018-01-05T04:20:22.647Z,8.20
2018-01-05T04:22:50.315Z,8.20
2018-01-05T04:25:17.975Z,8.30
2018-01-05T04:27:45.567Z,8.30
2018-01-05T04:30:13.941Z,8.50
2018-01-05T04:32:42.310Z,8.60
2018-01-05T04:35:09.905Z,8.60
2018-01-05T04:37:38.558Z,8.80
2018-01-05T04:40:07.669Z,8.80
2018-01-05T04:42:35.253Z,8.80
2018-01-05T04:45:03.634Z,9.00
2018-01-05T04:47:31.991Z,9.00
2018-01-05T04:50:01.122Z,9.00
2018-01-05T04:52:28.722Z,9.00
2018-01-05T04:54:56.404Z,9.00
2018-01-05T04:57:23.997Z,9.00
2018-01-05T04:59:51.584Z,9.00
2018-01-05T05:02:19.988Z,8.90
2018-01-05T05:04:47.604Z,8.90
2018-01-05T05:07:15.984Z,8.80
2018-01-05T05:09:43.566Z,8.80
2018-01-05T05:12:11.181Z,8.80
2018-01-05T05:14:38.756Z,8.80
2018-01-05T05:17:06.350Z,8.80
2018-01-05T05:19:33.958Z,8.80
2018-01-05T05:22:01.605Z,8.80
2018-01-05T05:24:30.018Z,8.70
2018-01-05T05:26:57.590Z,8.70
2018-01-05T05:29:25.274Z,8.70
2018-01-05T05:31:52.905Z,8.70
2018-01-05T05:34:20.503Z,8.70
2018-01-05T05:36:48.111Z,8.70
2018-01-05T05:39:16.485Z,8.70
2018-01-05T05:41:44.865Z,8.70
2018-01-05T05:44:12.461Z,8.70
2018-01-05T05:46:40.821Z,8.70
2018-01-05T05:49:08.623Z,8.60
2018-01-05T05:51:36.220Z,8.60
2018-01-05T05:54:03.835Z,8.60
2018-01-05T05:56:32.202Z,8.60
2018-01-05T05:58:59.825Z,8.60
2018-01-05T06:01:27.541Z,8.60
2018-01-05T06:03:55.141Z,8.60
2018-01-05T06:06:22.791Z,8.60
2018-01-05T06:08:50.403Z,8.60
2018-01-05T06:11:18.015Z,8.60
2018-01-05T06:13:46.380Z,8.60
2018-01-05T06:16:14.121Z,8.60
2018-01-05T06:18:41.719Z,8.60
2018-01-05T06:21:10.100Z,8.60
2018-01-05T06:23:38.460Z,8.70
2018-01-05T06:26:06.114Z,8.60
2018-01-05T06:28:33.706Z,8.70
2018-01-05T06:31:01.315Z,8.70
2018-01-05T06:33:28.930Z,8.70
2018-01-05T06:35:58.045Z,8.70
2018-01-05T06:38:25.672Z,8.70
2018-01-05T06:40:53.287Z,8.70
2018-01-05T06:43:21.673Z,8.80
2018-01-05T06:45:50.091Z,8.80
2018-01-05T06:48:17.804Z,8.80
2018-01-05T06:50:45.600Z,8.70
2018-01-05T06:53:14.004Z,8.70
2018-01-05T06:55:41.606Z,8.70
2018-01-05T06:58:09.242Z,8.70
2018-01-05T07:00:36.940Z,8.70
2018-01-05T07:03:04.550Z,8.60
2018-01-05T07:05:32.921Z,8.50
2018-01-05T07:08:01.405Z,8.50
2018-01-05T07:10:29.103Z,8.50
2018-01-05T07:12:56.728Z,8.50
2018-01-05T07:15:24.561Z,8.50
2018-01-05T07:17:52.183Z,8.50
2018-01-05T07:20:20.603Z,8.50
2018-01-05T07:22:48.947Z,8.50
2018-01-05T07:25:17.361Z,8.60
2018-01-05T07:27:44.986Z,8.50
2018-01-05T07:30:13.381Z,9.00
2018-01-05T07:32:41.735Z,9.20
2018-01-05T07:35:09.330Z,9.20
2018-01-05T07:37:37.809Z,9.50
2018-01-05T07:40:06.193Z,9.60
2018-01-05T07:42:34.577Z,9.50
2018-01-05T07:45:02.955Z,9.50
2018-01-05T07:47:30.859Z,9.50
2018-01-05T07:49:58.531Z,9.50
2018-01-05T07:52:26.871Z,9.40
2018-01-05T07:54:54.504Z,9.40
2018-01-05T07:57:22.099Z,9.30
2018-01-05T07:59:49.728Z,9.10
2018-01-05T08:02:17.336Z,9.00
2018-01-05T08:04:44.947Z,8.90
2018-01-05T08:07:12.715Z,8.90
2018-01-05T08:09:40.313Z,8.90
2018-01-05T08:12:07.983Z,9.00
2018-01-05T08:14:35.544Z,9.00
2018-01-05T08:17:03.178Z,9.10
2018-01-05T08:19:30.788Z,9.10
2018-01-05T08:21:59.908Z,9.10
2018-01-05T08:24:28.276Z,9.10
2018-01-05T08:26:55.872Z,9.10
2018-01-05T08:29:24.254Z,9.30
2018-01-05T08:31:51.867Z,9.30
2018-01-05T08:34:19.640Z,9.30
2018-01-05T08:36:47.251Z,9.30
2018-01-05T08:39:15.708Z,9.50
2018-01-05T08:41:43.840Z,9.50
2018-01-05T08:44:11.428Z,9.60
2018-01-05T08:46:39.024Z,9.70
2018-01-05T08:49:06.624Z,9.90
2018-01-05T08:51:34.248Z,10.10
2018-01-05T08:54:02.034Z,10.40
2018-01-05T08:56:30.406Z,11.00
2018-01-05T08:58:58.032Z,11.00
2018-01-05T09:01:25.639Z,11.20
2018-01-05T09:03:53.270Z,11.50
2018-01-05T09:06:20.866Z,11.60
2018-01-05T09:08:48.469Z,11.60
2018-01-05T09:11:16.088Z,11.60
2018-01-05T09:13:43.681Z,11.60
2018-01-05T09:16:12.083Z,11.50
2018-01-05T09:18:39.675Z,11.50
2018-01-05T09:21:07.319Z,11.50
2018-01-05T09:23:34.951Z,11.50
2018-01-05T09:26:03.327Z,11.60
2018-01-05T09:28:31.749Z,11.60
2018-01-05T09:30:59.367Z,11.60
2018-01-05T09:33:26.967Z,11.50
2018-01-05T09:35:55.325Z,11.70
2018-01-05T09:38:22.935Z,11.70
2018-01-05T09:40:50.557Z,12.10
2018-01-05T09:43:18.161Z,12.30
2018-01-05T09:45:45.787Z,12.40
2018-01-05T09:48:14.229Z,12.40
2018-01-05T09:50:41.861Z,12.40
2018-01-05T09:53:10.234Z,12.40
2018-01-05T09:55:39.582Z,12.20
2018-01-05T09:58:07.218Z,12.20
2018-01-05T10:00:35.583Z,12.10
2018-01-05T10:03:03.192Z,12.10
2018-01-05T10:05:30.818Z,12.30
2018-01-05T10:07:59.219Z,13.10
2018-01-05T10:10:27.601Z,13.70
2018-01-05T10:12:55.951Z,14.00
2018-01-05T10:15:23.586Z,14.00
2018-01-05T10:17:51.204Z,14.60
2018-01-05T10:20:19.611Z,15.00
2018-01-05T10:22:47.217Z,15.00
2018-01-05T10:25:15.049Z,14.90
2018-01-05T10:27:42.682Z,14.90
2018-01-05T10:30:11.057Z,14.90
2018-01-05T10:32:38.680Z,14.90
2018-01-05T10:35:06.276Z,15.30
2018-01-05T10:37:34.024Z,15.80
2018-01-05T10:40:01.663Z,15.90
2018-01-05T10:42:29.366Z,16.00
2018-01-05T10:44:56.995Z,15.80
2018-01-05T10:47:24.602Z,15.50
2018-01-05T10:49:52.290Z,15.20
2018-01-05T10:52:19.905Z,15.00
2018-01-05T10:54:47.518Z,14.70
2018-01-05T10:57:15.128Z,14.50
2018-01-05T10:59:42.731Z,14.50
2018-01-05T11:02:10.407Z,14.70
2018-01-05T11:04:38.135Z,14.90
2018-01-05T11:07:05.747Z,15.10
2018-01-05T11:09:33.521Z,15.00
2018-01-05T11:12:01.933Z,14.80
2018-01-05T11:14:30.346Z,14.80
2018-01-05T11:16:57.941Z,14.80
2018-01-05T11:19:25.611Z,14.80
2018-01-05T11:21:53.239Z,14.90
2018-01-05T11:24:20.847Z,14.90
2018-01-05T11:26:48.489Z,15.00
2018-01-05T11:29:16.086Z,15.20
2018-01-05T11:31:43.654Z,15.30
2018-01-05T11:34:11.278Z,15.20
2018-01-05T11:36:38.893Z,15.30
2018-01-05T11:39:07.562Z,15.30
2018-01-05T11:41:35.177Z,15.30
2018-01-05T11:44:02.796Z,15.00
2018-01-05T11:46:30.532Z,14.60
2018-01-05T11:48:58.469Z,14.40
2018-01-05T11:51:26.968Z,14.00
2018-01-05T11:53:54.764Z,13.90
2018-01-05T11:56:22.388Z,13.80
2018-01-05T11:58:50.790Z,13.20
2018-01-05T12:01:18.383Z,13.20
2018-01-05T12:03:46.090Z,12.80
2018-01-05T12:06:13.781Z,12.60
2018-01-05T12:08:41.442Z,12.50
2018-01-05T12:11:09.816Z,12.20
2018-01-05T12:13:38.207Z,12.00
2018-01-05T12:16:06.591Z,11.80
2018-01-05T12:18:34.981Z,11.60
2018-01-05T12:21:03.374Z,11.60
2018-01-05T12:23:31.005Z,11.50
2018-01-05T12:25:58.624Z,11.50
2018-01-05T12:28:27.023Z,11.40
2018-01-05T12:30:54.616Z,11.40
2018-01-05T12:33:22.444Z,11.30
2018-01-05T12:35:50.047Z,11.30
2018-01-05T12:38:17.661Z,11.20
2018-01-05T12:40:45.288Z,11.20
2018-01-05T12:43:12.886Z,11.10
2018-01-05T12:45:40.541Z,11.10
2018-01-05T12:48:08.905Z,11.10
2018-01-05T12:50:37.307Z,11.10
2018-01-05T12:53:04.914Z,11.00
2018-01-05T12:55:32.533Z,11.10
2018-01-05T12:58:00.928Z,11.00
2018-01-05T13:00:28.570Z,11.00
2018-01-05T13:02:56.188Z,10.90
2018-01-05T13:05:23.831Z,11.00
2018-01-05T13:07:51.541Z,11.00
2018-01-05T13:10:19.156Z,11.20
2018-01-05T13:12:46.763Z,11.30
2018-01-05T13:15:14.472Z,11.60
2018-01-05T13:17:42.845Z,11.70
2018-01-05T13:20:10.471Z,11.70
2018-01-05T13:22:38.084Z,11.70
2018-01-05T13:25:06.667Z,11.70
2018-01-05T13:27:34.251Z,11.70
2018-01-05T13:30:02.630Z,11.70
2018-01-05T13:32:31.046Z,11.60
2018-01-05T13:34:58.741Z,11.60
2018-01-05T13:37:26.370Z,11.50
2018-01-05T13:39:53.964Z,11.50
2018-01-05T13:42:21.579Z,11.50
2018-01-05T13:44:49.946Z,11.50
2018-01-05T13:47:17.547Z,11.50
2018-01-05T13:49:45.256Z,11.50
2018-01-05T13:52:12.876Z,11.50
2018-01-05T13:54:40.547Z,11.40
2018-01-05T13:57:08.141Z,11.30
2018-01-05T13:59:35.764Z,11.30
2018-01-05T14:02:04.128Z,11.10
2018-01-05T14:04:31.846Z,11.10
2018-01-05T14:06:59.453Z,11.00
2018-01-05T14:09:27.056Z,11.00
2018-01-05T14:11:54.671Z,10.90
2018-01-05T14:14:22.300Z,10.80
2018-01-05T14:16:49.958Z,10.80
2018-01-05T14:19:17.628Z,10.70
2018-01-05T14:21:45.265Z,10.60
2018-01-05T14:24:13.671Z,10.50
2018-01-05T14:26:41.323Z,10.50
2018-01-05T14:29:09.701Z,10.50
2018-01-05T14:31:38.073Z,10.50
2018-01-05T14:34:05.701Z,10.50
2018-01-05T14:36:33.306Z,10.40
2018-01-05T14:39:00.927Z,10.30
2018-01-05T14:41:28.534Z,10.30
2018-01-05T14:43:56.153Z,10.20
2018-01-05T14:46:23.775Z,10.20
2018-01-05T14:48:52.145Z,10.10
2018-01-05T14:51:19.770Z,10.10
2018-01-05T14:53:47.381Z,10.10
2018-01-05T14:56:15.027Z,10.00
2018-01-05T14:58:42.634Z,10.00
2018-01-05T15:01:11.070Z,10.00
2018-01-05T15:03:38.867Z,9.90
2018-01-05T15:06:06.477Z,10.00
2018-01-05T15:08:34.126Z,10.50
2018-01-05T15:11:02.494Z,11.50
2018-01-05T15:13:30.886Z,11.80
2018-01-05T15:15:59.269Z,11.80
2018-01-05T15:18:27.796Z,11.70
2018-01-05T15:20:55.504Z,11.70
2018-01-05T15:23:23.110Z,11.30
2018-01-05T15:25:50.763Z,10.90
2018-01-05T15:28:18.362Z,10.50
2018-01-05T15:30:45.999Z,10.20
2018-01-05T15:33:13.740Z,10.00
2018-01-05T15:35:42.156Z,9.70
2018-01-05T15:38:09.776Z,9.70
2018-01-05T15:40:37.378Z,9.50
2018-01-05T15:43:05.032Z,9.50
2018-01-05T15:45:33.411Z,9.20
2018-01-05T15:48:01.876Z,9.10
2018-01-05T15:50:29.446Z,9.10
2018-01-05T15:52:57.157Z,9.00
2018-01-05T15:55:24.782Z,8.90
2018-01-05T15:57:52.551Z,8.80
2018-01-05T16:00:20.200Z,8.80
2018-01-05T16:02:47.855Z,8.80
2018-01-05T16:05:15.525Z,8.70
2018-01-05T16:07:43.201Z,8.70
2018-01-05T16:10:10.815Z,8.70
2018-01-05T16:12:38.496Z,8.70
2018-01-05T16:15:06.189Z,8.70
2018-01-05T16:17:33.887Z,8.60
2018-01-05T16:20:01.551Z,8.60
2018-01-05T16:22:29.191Z,8.60
2018-01-05T16:24:56.832Z,8.50
2018-01-05T16:27:25.637Z,8.50
2018-01-05T16:29:53.300Z,8.50
2018-01-05T16:32:20.915Z,8.40
2018-01-05T16:34:48.535Z,8.80
2018-01-05T16:37:16.183Z,8.70
2018-01-05T16:39:44.765Z,8.60
2018-01-05T16:42:12.390Z,8.50
2018-01-05T16:44:40.164Z,8.40
2018-01-05T16:47:09.324Z,8.50
2018-01-05T16:49:37.159Z,8.50
2018-01-05T16:52:04.830Z,9.20
2018-01-05T16:54:33.260Z,10.20
2018-01-05T16:57:01.004Z,10.20
2018-01-05T16:59:28.702Z,10.00
2018-01-05T17:01:56.400Z,9.50
2018-01-05T17:04:24.836Z,9.00
2018-01-05T17:06:52.492Z,9.00
2018-01-05T17:09:20.166Z,8.80
2018-01-05T17:11:47.796Z,8.60
2018-01-05T17:14:16.172Z,8.40
2018-01-05T17:16:44.587Z,8.30
2018-01-05T17:19:12.235Z,8.30
2018-01-05T17:21:43.802Z,8.10
2018-01-05T17:24:11.791Z,8.10
2018-01-05T17:26:39.470Z,8.00
2018-01-05T17:29:07.101Z,8.00
2018-01-05T17:31:35.494Z,7.90
2018-01-05T17:34:03.091Z,7.90
2018-01-05T17:36:30.737Z,7.90
2018-01-05T17:38:58.346Z,7.90
2018-01-05T17:41:25.970Z,7.90
2018-01-05T17:43:53.561Z,7.80
2018-01-05T17:46:21.169Z,7.80
2018-01-05T17:48:49.578Z,7.60
2018-01-05T17:51:17.194Z,7.60
2018-01-05T17:53:46.350Z,7.50
2018-01-05T17:56:14.078Z,7.50
2018-01-05T17:58:41.693Z,7.40
2018-01-05T18:01:09.327Z,7.40
2018-01-05T18:03:37.734Z,7.30
2018-01-05T18:06:05.366Z,7.30
2018-01-05T18:08:33.759Z,7.40
2018-01-05T18:11:02.180Z,7.40
2018-01-05T18:13:29.820Z,7.40
2018-01-05T18:15:57.448Z,7.40
2018-01-05T18:18:25.073Z,7.30
2018-01-05T18:20:52.734Z,7.30
2018-01-05T18:23:20.377Z,7.30
2018-01-05T18:25:48.774Z,7.20
2018-01-05T18:28:16.446Z,7.20
2018-01-05T18:30:44.123Z,7.30
2018-01-05T18:33:11.790Z,7.30
2018-01-05T18:35:39.458Z,7.30
2018-01-05T18:38:07.110Z,7.20
2018-01-05T18:40:34.802Z,7.20
2018-01-05T18:43:02.408Z,7.20
2018-01-05T18:45:30.014Z,7.20
2018-01-05T18:47:57.705Z,7.20
2018-01-05T18:50:25.328Z,7.20
2018-01-05T18:52:52.983Z,7.20
2018-01-05T18:55:21.407Z,7.30
2018-01-05T18:57:49.052Z,7.20
2018-01-05T19:00:16.710Z,7.30
2018-01-05T19:02:44.418Z,7.30
2018-01-05T19:05:12.089Z,7.20
2018-01-05T19:07:40.563Z,7.10
2018-01-05T19:10:08.225Z,7.10
2018-01-05T19:12:35.896Z,7.00
2018-01-05T19:15:03.626Z,7.00
2018-01-05T19:17:31.286Z,7.00
2018-01-05T19:19:59.724Z,6.90
2018-01-05T19:22:27.497Z,6.90
2018-01-05T19:24:55.182Z,6.90
2018-01-05T19:27:23.632Z,6.90
2018-01-05T19:29:51.301Z,6.90
2018-01-05T19:32:19.007Z,6.90
2018-01-05T19:34:46.687Z,6.90
2018-01-05T19:37:15.213Z,6.90
2018-01-05T19:39:42.931Z,6.90
2018-01-05T19:42:10.607Z,6.90
2018-01-05T19:44:39.130Z,6.80
2018-01-05T19:47:06.796Z,6.80
2018-01-05T19:49:34.484Z,6.80
2018-01-05T19:52:02.184Z,6.90
2018-01-05T19:54:29.833Z,6.90
2018-01-05T19:59:33.554Z,6.90
2018-01-05T20:02:01.230Z,6.80
2018-01-05T20:04:28.944Z,6.80
2018-01-05T20:06:56.599Z,6.80
2018-01-05T20:09:25.068Z,6.80
2018-01-05T20:11:52.761Z,6.70
2018-01-05T20:14:21.222Z,6.80
2018-01-05T20:16:48.987Z,6.70
2018-01-05T20:19:16.689Z,6.80
2018-01-05T20:21:45.082Z,6.70
2018-01-05T20:24:12.783Z,6.80
2018-01-05T20:26:40.540Z,6.80
2018-01-05T20:29:08.393Z,6.70
2018-01-05T20:31:36.076Z,6.80
2018-01-05T20:34:03.755Z,6.80
2018-01-05T20:36:31.436Z,6.80
2018-01-05T20:38:59.210Z,6.80
2018-01-05T20:41:26.964Z,6.80
2018-01-05T20:43:55.226Z,6.80
2018-01-05T20:46:26.188Z,6.80
2018-01-05T20:48:54.036Z,6.80
2018-01-05T20:51:22.843Z,6.80
2018-01-05T20:53:50.612Z,6.80
2018-01-05T20:56:19.193Z,6.80
2018-01-05T20:58:46.921Z,6.80
2018-01-05T21:01:15.425Z,6.90
2018-01-05T21:03:43.190Z,6.90
2018-01-05T21:06:10.923Z,6.90
2018-01-05T21:08:38.635Z,7.00
2018-01-05T21:11:06.711Z,7.00
2018-01-05T21:13:34.508Z,7.00
2018-01-05T21:16:02.942Z,7.00
2018-01-05T21:18:31.427Z,7.10
2018-01-05T21:20:59.207Z,7.00
2018-01-05T21:23:26.894Z,7.10
2018-01-05T21:25:54.581Z,7.10
2018-01-05T21:28:22.302Z,7.10
2018-01-05T21:30:51.400Z,7.10
2018-01-05T21:33:19.907Z,7.00
2018-01-05T21:35:47.617Z,7.00
2018-01-05T21:38:15.354Z,7.00
2018-01-05T21:40:43.056Z,7.00
2018-01-05T21:43:11.531Z,6.90
2018-01-05T21:45:39.186Z,6.90
2018-01-05T21:48:08.168Z,7.20
2018-01-05T21:50:35.817Z,7.20
2018-01-05T21:53:03.484Z,7.40
2018-01-05T21:55:31.574Z,7.50
2018-01-05T21:57:59.270Z,7.50
2018-01-05T22:00:27.363Z,7.60
2018-01-05T22:02:56.923Z,7.60
2018-01-05T22:05:24.664Z,7.50
2018-01-05T22:07:53.190Z,7.60
2018-01-05T22:10:20.867Z,7.60
2018-01-05T22:12:48.605Z,7.60
2018-01-05T22:15:16.262Z,7.50
2018-01-05T22:17:44.667Z,7.50
2018-01-05T22:20:12.296Z,7.50
2018-01-05T22:22:39.968Z,7.50
2018-01-05T22:25:08.470Z,7.40
2018-01-05T22:27:36.922Z,7.50
2018-01-05T22:30:04.543Z,7.50
2018-01-05T22:32:32.143Z,7.50
2018-01-05T22:34:59.792Z,7.60
2018-01-05T22:37:27.402Z,7.60
2018-01-05T22:39:56.122Z,7.60
2018-01-05T22:42:23.852Z,7.60
2018-01-05T22:44:51.521Z,7.60
2018-01-05T22:47:19.152Z,7.70
2018-01-05T22:49:46.968Z,7.70
2018-01-05T22:52:15.403Z,7.80
2018-01-05T22:54:43.025Z,7.70
2018-01-05T22:57:11.633Z,7.70
2018-01-05T22:59:39.279Z,7.70
2018-01-05T23:02:07.655Z,7.60
2018-01-05T23:04:36.094Z,7.50
2018-01-05T23:07:03.710Z,7.50
2018-01-05T23:09:32.076Z,7.40
2018-01-05T23:11:59.704Z,7.40
2018-01-05T23:14:27.288Z,7.40
2018-01-05T23:16:54.894Z,7.40
2018-01-05T23:19:23.276Z,7.30
2018-01-05T23:21:51.681Z,7.30
2018-01-05T23:24:19.272Z,7.30
2018-01-05T23:26:46.890Z,7.30
2018-01-05T23:29:15.292Z,7.30
2018-01-05T23:31:42.932Z,7.30
2018-01-05T23:34:11.325Z,7.30
2018-01-05T23:36:39.708Z,7.30
2018-01-05T23:39:08.070Z,7.30
2018-01-05T23:41:35.682Z,7.30
2018-01-05T23:44:03.452Z,7.30
2018-01-05T23:46:31.107Z,7.30
2018-01-05T23:48:58.900Z,7.30
2018-01-05T23:51:26.629Z,7.40
2018-01-05T23:53:55.048Z,7.40
2018-01-05T23:56:22.639Z,7.40
2018-01-05T23:58:50.324Z,7.40
